createdAt,value
2017-05-16T00:00:20.908Z,0
2017-05-16T00:01:21.609Z,0
2017-05-16T00:02:22.309Z,0
2017-05-16T00:03:23.257Z,0
2017-05-16T00:04:23.954Z,0
2017-05-16T00:05:24.656Z,0
2017-05-16T00:06:25.352Z,0
2017-05-16T00:07:26.050Z,0
2017-05-16T00:08:26.951Z,0
2017-05-16T00:09:27.653Z,0
2017-05-16T00:10:28.357Z,0
2017-05-16T00:11:29.058Z,0
2017-05-16T00:12:29.755Z,0
2017-05-16T00:13:30.705Z,0
2017-05-16T00:14:31.405Z,0
2017-05-16T00:15:32.105Z,0
2017-05-16T00:16:32.806Z,0
2017-05-16T00:17:33.511Z,0
2017-05-16T00:18:34.462Z,0
2017-05-16T00:19:35.163Z,0
2017-05-16T00:20:35.862Z,0
2017-05-16T00:21:36.557Z,0
2017-05-16T00:22:37.258Z,0
2017-05-16T00:23:38.260Z,0
2017-05-16T00:24:38.961Z,0
2017-05-16T00:25:39.663Z,0
2017-05-16T00:26:40.367Z,0
2017-05-16T00:27:41.064Z,0
2017-05-16T00:28:42.014Z,0
2017-05-16T00:29:42.712Z,0
2017-05-16T00:30:43.413Z,0
2017-05-16T00:31:44.114Z,0
2017-05-16T00:32:44.815Z,0
2017-05-16T00:33:45.762Z,0
2017-05-16T00:34:46.463Z,0
2017-05-16T00:35:47.162Z,0
2017-05-16T00:36:47.862Z,0
2017-05-16T00:37:48.566Z,0
2017-05-16T00:38:49.514Z,0
2017-05-16T00:39:50.212Z,0
2017-05-16T00:40:50.912Z,0
2017-05-16T00:41:51.612Z,0
2017-05-16T00:42:52.307Z,0
2017-05-16T00:43:53.271Z,0
2017-05-16T00:44:53.969Z,0
2017-05-16T00:45:54.676Z,0
2017-05-16T00:46:55.374Z,0
2017-05-16T00:47:56.072Z,0
2017-05-16T00:48:57.019Z,0
2017-05-16T00:49:57.717Z,0
2017-05-16T00:50:58.420Z,0
2017-05-16T00:51:59.121Z,0
2017-05-16T00:52:59.822Z,0
2017-05-16T00:54:00.769Z,0
2017-05-16T00:55:01.517Z,0
2017-05-16T00:56:02.221Z,0
2017-05-16T00:57:02.929Z,0
2017-05-16T00:58:03.624Z,0
2017-05-16T00:59:04.574Z,0
2017-05-16T01:00:05.279Z,0
2017-05-16T01:01:05.976Z,0
2017-05-16T01:02:06.676Z,0
2017-05-16T01:03:07.371Z,0
2017-05-16T01:04:08.323Z,0
2017-05-16T01:05:09.020Z,0
2017-05-16T01:06:09.721Z,0
2017-05-16T01:07:10.422Z,0
2017-05-16T01:08:11.122Z,0
2017-05-16T01:09:12.070Z,0
2017-05-16T01:10:12.768Z,0
2017-05-16T01:11:13.465Z,0
2017-05-16T01:12:14.163Z,0
2017-05-16T01:13:14.864Z,0
2017-05-16T01:14:15.811Z,0
2017-05-16T01:15:16.508Z,0
2017-05-16T01:16:17.210Z,0
2017-05-16T01:17:17.918Z,0
2017-05-16T01:18:18.618Z,0
2017-05-16T01:19:19.569Z,0
2017-05-16T01:20:20.265Z,0
2017-05-16T01:21:20.964Z,0
2017-05-16T01:22:21.661Z,0
2017-05-16T01:23:22.362Z,0
2017-05-16T01:24:23.261Z,0
2017-05-16T01:25:23.965Z,0
2017-05-16T01:26:24.668Z,0
2017-05-16T01:27:25.368Z,0
2017-05-16T01:28:26.075Z,0
2017-05-16T01:29:27.019Z,0
2017-05-16T01:30:27.720Z,0
2017-05-16T01:31:28.417Z,0
2017-05-16T01:32:29.117Z,0
2017-05-16T01:33:29.817Z,0
2017-05-16T01:34:30.766Z,0
2017-05-16T01:35:31.463Z,0
2017-05-16T01:36:32.156Z,0
2017-05-16T01:37:32.854Z,0
2017-05-16T01:38:33.556Z,0
2017-05-16T01:39:34.556Z,0
2017-05-16T01:40:35.252Z,0
2017-05-16T01:41:35.953Z,0
2017-05-16T01:42:36.652Z,0
2017-05-16T01:43:37.348Z,0
2017-05-16T01:44:38.297Z,0
2017-05-16T01:45:38.992Z,0
2017-05-16T01:46:39.689Z,0
2017-05-16T01:47:40.388Z,0
2017-05-16T01:48:41.089Z,0
2017-05-16T01:49:41.987Z,0
2017-05-16T01:50:42.689Z,0
2017-05-16T01:51:43.390Z,0
2017-05-16T01:52:44.092Z,0
2017-05-16T01:53:44.791Z,0
2017-05-16T01:54:45.737Z,0
2017-05-16T01:55:46.436Z,0
2017-05-16T01:56:47.133Z,0
2017-05-16T01:57:47.827Z,0
2017-05-16T01:58:48.524Z,0
2017-05-16T01:59:49.468Z,0
2017-05-16T02:00:50.165Z,0
2017-05-16T02:01:50.858Z,0
2017-05-16T02:02:51.555Z,0
2017-05-16T02:03:52.259Z,0
2017-05-16T02:04:53.157Z,0
2017-05-16T02:05:53.855Z,0
2017-05-16T02:06:54.551Z,0
2017-05-16T02:07:55.257Z,0
2017-05-16T02:08:55.961Z,0
2017-05-16T02:09:56.862Z,0
2017-05-16T02:10:57.563Z,0
2017-05-16T02:11:58.261Z,0
2017-05-16T02:12:58.958Z,0
2017-05-16T02:13:59.659Z,0
2017-05-16T02:15:00.608Z,0
2017-05-16T02:16:01.313Z,0
2017-05-16T02:17:02.016Z,0
2017-05-16T02:18:02.718Z,0
2017-05-16T02:19:03.418Z,0
2017-05-16T02:20:04.326Z,0
2017-05-16T02:21:05.033Z,0
2017-05-16T02:22:05.733Z,0
2017-05-16T02:23:06.428Z,0
2017-05-16T02:24:07.123Z,0
2017-05-16T02:25:08.070Z,0
2017-05-16T02:26:08.766Z,0
2017-05-16T02:27:09.470Z,0
2017-05-16T02:28:10.165Z,0
2017-05-16T02:29:10.859Z,0
2017-05-16T02:30:11.808Z,0
2017-05-16T02:31:12.506Z,0
2017-05-16T02:32:13.202Z,0
2017-05-16T02:33:13.905Z,0
2017-05-16T02:34:14.603Z,0
2017-05-16T02:35:15.559Z,0
2017-05-16T02:36:16.258Z,0
2017-05-16T02:37:16.957Z,0
2017-05-16T02:38:17.652Z,0
2017-05-16T02:39:18.351Z,0
2017-05-16T02:40:19.247Z,0
2017-05-16T02:41:19.945Z,0
2017-05-16T02:42:20.639Z,0
2017-05-16T02:43:21.349Z,0
2017-05-16T02:44:22.050Z,0
2017-05-16T02:45:22.999Z,0
2017-05-16T02:46:23.698Z,0
2017-05-16T02:47:24.393Z,0
2017-05-16T02:48:25.094Z,0
2017-05-16T02:49:25.793Z,0
2017-05-16T02:50:26.739Z,0
2017-05-16T02:51:27.438Z,0
2017-05-16T02:52:28.138Z,0
2017-05-16T02:53:28.834Z,0
2017-05-16T02:54:29.530Z,0
2017-05-16T02:55:30.424Z,0
2017-05-16T02:56:31.121Z,0
2017-05-16T02:57:31.819Z,0
2017-05-16T02:58:32.520Z,0
2017-05-16T02:59:33.219Z,0
2017-05-16T03:00:34.167Z,0
2017-05-16T03:01:34.866Z,0
2017-05-16T03:02:35.567Z,0
2017-05-16T03:03:36.268Z,0
2017-05-16T03:04:36.966Z,0
2017-05-16T03:05:37.963Z,0
2017-05-16T03:06:38.657Z,0
2017-05-16T03:07:39.361Z,0
2017-05-16T03:08:40.058Z,0
2017-05-16T03:09:40.760Z,0
2017-05-16T03:10:41.706Z,0
2017-05-16T03:11:42.403Z,0
2017-05-16T03:12:43.101Z,0
2017-05-16T03:13:43.799Z,0
2017-05-16T03:14:44.497Z,0
2017-05-16T03:15:45.443Z,0
2017-05-16T03:16:46.138Z,0
2017-05-16T03:17:46.835Z,0
2017-05-16T03:18:47.531Z,0
2017-05-16T03:19:48.240Z,0
2017-05-16T03:20:49.143Z,0
2017-05-16T03:21:49.844Z,0
2017-05-16T03:22:50.567Z,0
2017-05-16T03:23:51.267Z,0
2017-05-16T03:24:51.961Z,0
2017-05-16T03:25:52.910Z,0
2017-05-16T03:26:53.610Z,0
2017-05-16T03:27:54.314Z,0
2017-05-16T03:28:55.012Z,0
2017-05-16T03:29:55.709Z,0
2017-05-16T03:30:56.610Z,0
2017-05-16T03:31:57.306Z,0
2017-05-16T03:32:58.007Z,0
2017-05-16T03:33:58.713Z,0
2017-05-16T03:34:59.409Z,5
2017-05-16T03:36:00.359Z,5
2017-05-16T03:37:01.055Z,5
2017-05-16T03:38:01.754Z,5
2017-05-16T03:39:02.451Z,5
2017-05-16T03:40:03.149Z,5
2017-05-16T03:41:04.099Z,5
2017-05-16T03:42:04.806Z,5
2017-05-16T03:43:05.508Z,5
2017-05-16T03:44:06.207Z,10
2017-05-16T03:45:06.910Z,10
2017-05-16T03:46:07.860Z,10
2017-05-16T03:47:08.563Z,10
2017-05-16T03:48:09.264Z,10
2017-05-16T03:49:09.966Z,10
2017-05-16T03:50:10.668Z,10
2017-05-16T03:51:11.618Z,15
2017-05-16T03:52:12.321Z,15
2017-05-16T03:53:13.022Z,15
2017-05-16T03:54:13.727Z,15
2017-05-16T03:55:14.425Z,15
2017-05-16T03:56:15.379Z,20
2017-05-16T03:57:16.079Z,20
2017-05-16T03:58:16.779Z,20
2017-05-16T03:59:17.484Z,20
2017-05-16T04:00:18.187Z,20
2017-05-16T04:01:19.148Z,20
2017-05-16T04:02:19.848Z,25
2017-05-16T04:03:20.544Z,25
2017-05-16T04:04:21.254Z,25
2017-05-16T04:05:21.957Z,25
2017-05-16T04:06:22.910Z,25
2017-05-16T04:07:23.606Z,30
2017-05-16T04:08:24.303Z,30
2017-05-16T04:09:25.005Z,30
2017-05-16T04:10:25.706Z,30
2017-05-16T04:11:26.607Z,35
2017-05-16T04:12:27.310Z,35
2017-05-16T04:13:28.018Z,35
2017-05-16T04:14:28.719Z,35
2017-05-16T04:15:29.417Z,35
2017-05-16T04:16:30.414Z,35
2017-05-16T04:17:31.117Z,40
2017-05-16T04:18:31.815Z,40
2017-05-16T04:19:32.513Z,40
2017-05-16T04:20:33.212Z,40
2017-05-16T04:21:34.159Z,40
2017-05-16T04:22:34.856Z,45
2017-05-16T04:23:35.553Z,45
2017-05-16T04:24:36.254Z,45
2017-05-16T04:25:36.951Z,45
2017-05-16T04:26:37.899Z,50
2017-05-16T04:27:38.607Z,50
2017-05-16T04:28:39.309Z,50
2017-05-16T04:29:40.013Z,55
2017-05-16T04:30:40.713Z,50
2017-05-16T04:31:41.664Z,55
2017-05-16T04:32:42.360Z,55
2017-05-16T04:33:43.062Z,55
2017-05-16T04:34:43.763Z,55
2017-05-16T04:35:44.463Z,55
2017-05-16T04:36:45.362Z,55
2017-05-16T04:37:46.059Z,60
2017-05-16T04:38:46.761Z,60
2017-05-16T04:39:47.464Z,60
2017-05-16T04:40:48.170Z,60
2017-05-16T04:41:49.123Z,60
2017-05-16T04:42:49.826Z,65
2017-05-16T04:43:50.523Z,65
2017-05-16T04:44:51.224Z,65
2017-05-16T04:45:51.929Z,65
2017-05-16T04:46:52.883Z,65
2017-05-16T04:47:53.584Z,70
2017-05-16T04:48:54.287Z,70
2017-05-16T04:49:54.988Z,70
2017-05-16T04:50:55.689Z,70
2017-05-16T04:51:58.093Z,70
2017-05-16T04:52:58.792Z,70
2017-05-16T04:53:59.498Z,70
2017-05-16T04:55:00.196Z,70
2017-05-16T04:56:00.897Z,70
2017-05-16T04:57:01.800Z,70
2017-05-16T04:58:02.503Z,70
2017-05-16T04:59:03.206Z,75
2017-05-16T05:00:03.906Z,70
2017-05-16T05:01:04.606Z,75
2017-05-16T05:02:05.559Z,75
2017-05-16T05:03:06.267Z,75
2017-05-16T05:04:06.969Z,80
2017-05-16T05:05:07.670Z,80
2017-05-16T05:06:08.376Z,80
2017-05-16T05:07:09.328Z,75
2017-05-16T05:08:10.031Z,80
2017-05-16T05:09:10.738Z,80
2017-05-16T05:10:11.438Z,80
2017-05-16T05:11:12.140Z,80
2017-05-16T05:12:13.041Z,80
2017-05-16T05:13:13.744Z,80
2017-05-16T05:14:14.442Z,80
2017-05-16T05:15:15.145Z,85
2017-05-16T05:16:15.853Z,85
2017-05-16T05:17:18.314Z,85
2017-05-16T05:18:19.015Z,90
2017-05-16T05:19:19.717Z,90
2017-05-16T05:20:20.429Z,90
2017-05-16T05:21:21.134Z,95
2017-05-16T05:22:22.088Z,95
2017-05-16T05:23:22.792Z,90
2017-05-16T05:24:23.493Z,90
2017-05-16T05:25:24.195Z,95
2017-05-16T05:26:24.897Z,95
2017-05-16T05:27:25.849Z,95
2017-05-16T05:28:26.550Z,95
2017-05-16T05:29:27.260Z,95
2017-05-16T05:30:27.964Z,100
2017-05-16T05:31:28.664Z,100
2017-05-16T05:32:29.617Z,100
2017-05-16T05:33:30.321Z,100
2017-05-16T05:34:31.031Z,100
2017-05-16T05:35:31.732Z,100
2017-05-16T05:36:32.434Z,105
2017-05-16T05:37:33.341Z,100
2017-05-16T05:38:34.053Z,100
2017-05-16T05:39:34.755Z,100
2017-05-16T05:40:35.462Z,105
2017-05-16T05:41:36.166Z,105
2017-05-16T05:42:37.120Z,105
2017-05-16T05:43:37.822Z,105
2017-05-16T05:44:38.528Z,110
2017-05-16T05:45:39.232Z,105
2017-05-16T05:46:39.938Z,105
2017-05-16T05:47:40.844Z,110
2017-05-16T05:48:41.551Z,110
2017-05-16T05:49:42.253Z,105
2017-05-16T05:50:42.959Z,110
2017-05-16T05:51:43.663Z,115
2017-05-16T05:52:44.567Z,115
2017-05-16T05:53:45.276Z,115
2017-05-16T05:54:45.979Z,115
2017-05-16T05:55:46.681Z,115
2017-05-16T05:56:47.631Z,120
2017-05-16T05:57:48.587Z,120
2017-05-16T05:58:49.291Z,110
2017-05-16T05:59:49.997Z,115
2017-05-16T06:00:50.700Z,120
2017-05-16T06:01:51.406Z,120
2017-05-16T06:02:52.370Z,120
2017-05-16T06:03:53.078Z,120
2017-05-16T06:04:53.790Z,120
2017-05-16T06:05:54.491Z,115
2017-05-16T06:06:55.194Z,115
2017-05-16T06:07:56.147Z,120
2017-05-16T06:08:56.854Z,125
2017-05-16T06:09:57.559Z,125
2017-05-16T06:10:58.278Z,125
2017-05-16T06:11:58.982Z,125
2017-05-16T06:12:59.887Z,125
2017-05-16T06:14:00.592Z,125
2017-05-16T06:15:01.302Z,125
2017-05-16T06:16:02.017Z,125
2017-05-16T06:17:02.728Z,130
2017-05-16T06:18:03.734Z,130
2017-05-16T06:19:04.442Z,130
2017-05-16T06:20:05.145Z,130
2017-05-16T06:21:05.850Z,125
2017-05-16T06:22:06.557Z,125
2017-05-16T06:23:07.511Z,125
2017-05-16T06:24:08.215Z,125
2017-05-16T06:25:08.917Z,125
2017-05-16T06:26:09.620Z,125
2017-05-16T06:27:10.321Z,125
2017-05-16T06:28:11.274Z,125
2017-05-16T06:29:11.985Z,125
2017-05-16T06:30:12.693Z,130
2017-05-16T06:31:13.395Z,130
2017-05-16T06:32:14.100Z,135
2017-05-16T06:33:15.072Z,135
2017-05-16T06:34:15.776Z,135
2017-05-16T06:35:16.488Z,135
2017-05-16T06:36:17.192Z,135
2017-05-16T06:37:17.896Z,135
2017-05-16T06:38:18.854Z,135
2017-05-16T06:39:19.561Z,130
2017-05-16T06:40:20.270Z,130
2017-05-16T06:41:20.982Z,135
2017-05-16T06:42:21.699Z,135
2017-05-16T06:43:22.661Z,135
2017-05-16T06:44:23.377Z,135
2017-05-16T06:45:24.080Z,135
2017-05-16T06:46:24.784Z,140
2017-05-16T06:47:25.494Z,140
2017-05-16T06:48:26.450Z,140
2017-05-16T06:49:27.160Z,140
2017-05-16T06:50:27.858Z,140
2017-05-16T06:51:28.559Z,140
2017-05-16T06:52:29.263Z,140
2017-05-16T06:53:30.215Z,140
2017-05-16T06:54:30.930Z,140
2017-05-16T06:55:31.645Z,140
2017-05-16T06:56:32.353Z,140
2017-05-16T06:57:33.056Z,140
2017-05-16T06:58:34.061Z,140
2017-05-16T06:59:34.766Z,145
2017-05-16T07:00:35.466Z,145
2017-05-16T07:01:36.169Z,145
2017-05-16T07:02:36.884Z,145
2017-05-16T07:03:37.845Z,145
2017-05-16T07:04:38.549Z,145
2017-05-16T07:05:39.256Z,145
2017-05-16T07:06:39.959Z,145
2017-05-16T07:07:40.665Z,145
2017-05-16T07:08:41.623Z,145
2017-05-16T07:09:42.327Z,145
2017-05-16T07:10:43.036Z,145
2017-05-16T07:11:43.748Z,140
2017-05-16T07:12:44.453Z,145
2017-05-16T07:13:45.410Z,145
2017-05-16T07:14:46.113Z,145
2017-05-16T07:15:46.814Z,150
2017-05-16T07:16:47.516Z,150
2017-05-16T07:17:48.221Z,150
2017-05-16T07:18:49.179Z,150
2017-05-16T07:19:49.885Z,150
2017-05-16T07:20:50.595Z,150
2017-05-16T07:21:51.300Z,150
2017-05-16T07:22:52.007Z,145
2017-05-16T07:23:52.919Z,155
2017-05-16T07:24:53.624Z,155
2017-05-16T07:25:54.327Z,155
2017-05-16T07:26:55.029Z,160
2017-05-16T07:27:55.736Z,160
2017-05-16T07:28:56.643Z,160
2017-05-16T07:29:57.351Z,160
2017-05-16T07:30:58.063Z,160
2017-05-16T07:31:58.774Z,155
2017-05-16T07:32:59.484Z,155
2017-05-16T07:34:00.390Z,160
2017-05-16T07:35:01.120Z,160
2017-05-16T07:36:01.832Z,160
2017-05-16T07:37:02.538Z,155
2017-05-16T07:38:03.246Z,155
2017-05-16T07:39:04.201Z,155
2017-05-16T07:40:04.903Z,155
2017-05-16T07:41:05.606Z,155
2017-05-16T07:42:06.312Z,155
2017-05-16T07:43:07.015Z,160
2017-05-16T07:44:07.974Z,155
2017-05-16T07:45:08.683Z,155
2017-05-16T07:46:09.390Z,155
2017-05-16T07:47:10.094Z,155
2017-05-16T07:48:10.802Z,155
2017-05-16T07:49:11.758Z,155
2017-05-16T07:50:12.466Z,155
2017-05-16T07:51:13.173Z,160
2017-05-16T07:52:13.879Z,155
2017-05-16T07:53:14.599Z,160
2017-05-16T07:54:15.560Z,160
2017-05-16T07:55:16.274Z,160
2017-05-16T07:56:16.977Z,155
2017-05-16T07:57:17.682Z,155
2017-05-16T07:58:18.391Z,160
2017-05-16T07:59:19.297Z,160
2017-05-16T08:00:20.004Z,160
2017-05-16T08:01:20.714Z,165
2017-05-16T08:02:21.418Z,165
2017-05-16T08:03:22.133Z,160
2017-05-16T08:04:23.087Z,160
2017-05-16T08:05:23.790Z,160
2017-05-16T08:06:24.493Z,160
2017-05-16T08:07:25.198Z,160
2017-05-16T08:08:25.902Z,160
2017-05-16T08:09:26.864Z,160
2017-05-16T08:10:27.575Z,160
2017-05-16T08:11:28.278Z,160
2017-05-16T08:12:28.989Z,160
2017-05-16T08:13:29.691Z,160
2017-05-16T08:14:30.664Z,160
2017-05-16T08:15:31.374Z,160
2017-05-16T08:16:32.082Z,160
2017-05-16T08:17:32.790Z,160
2017-05-16T08:18:33.494Z,160
2017-05-16T08:19:34.453Z,160
2017-05-16T08:20:35.164Z,160
2017-05-16T08:21:35.870Z,160
2017-05-16T08:22:36.577Z,160
2017-05-16T08:23:37.284Z,160
2017-05-16T08:24:38.239Z,160
2017-05-16T08:25:38.951Z,160
2017-05-16T08:26:39.652Z,160
2017-05-16T08:27:40.358Z,160
2017-05-16T08:28:41.071Z,160
2017-05-16T08:29:41.980Z,160
2017-05-16T08:30:42.687Z,160
2017-05-16T08:31:43.393Z,165
2017-05-16T08:32:44.101Z,165
2017-05-16T08:33:44.815Z,165
2017-05-16T08:34:45.722Z,165
2017-05-16T08:35:46.432Z,165
2017-05-16T08:36:47.137Z,165
2017-05-16T08:37:47.843Z,165
2017-05-16T08:38:48.548Z,165
2017-05-16T08:39:49.503Z,165
2017-05-16T08:40:50.210Z,165
2017-05-16T08:41:50.916Z,165
2017-05-16T08:42:51.624Z,165
2017-05-16T08:43:52.331Z,165
2017-05-16T08:44:53.243Z,175
2017-05-16T08:45:53.957Z,170
2017-05-16T08:46:54.664Z,175
2017-05-16T08:47:55.373Z,170
2017-05-16T08:48:56.084Z,170
2017-05-16T08:49:56.998Z,170
2017-05-16T08:50:57.704Z,175
2017-05-16T08:51:58.413Z,170
2017-05-16T08:52:59.123Z,170
2017-05-16T08:53:59.835Z,170
2017-05-16T08:55:00.796Z,170
2017-05-16T08:56:01.504Z,170
2017-05-16T08:57:02.210Z,170
2017-05-16T08:58:02.927Z,170
2017-05-16T08:59:03.636Z,175
2017-05-16T09:00:04.596Z,175
2017-05-16T09:01:05.315Z,175
2017-05-16T09:02:06.022Z,175
2017-05-16T09:03:06.737Z,175
2017-05-16T09:04:07.447Z,175
2017-05-16T09:05:08.405Z,175
2017-05-16T09:06:09.116Z,175
2017-05-16T09:07:09.828Z,175
2017-05-16T09:08:10.547Z,180
2017-05-16T09:09:11.250Z,180
2017-05-16T09:10:12.156Z,185
2017-05-16T09:11:12.867Z,180
2017-05-16T09:12:13.585Z,180
2017-05-16T09:13:14.293Z,185
2017-05-16T09:14:15.004Z,180
2017-05-16T09:15:15.962Z,185
2017-05-16T09:16:16.667Z,185
2017-05-16T09:17:17.391Z,185
2017-05-16T09:18:18.108Z,185
2017-05-16T09:19:18.819Z,185
2017-05-16T09:20:19.779Z,185
2017-05-16T09:21:20.486Z,185
2017-05-16T09:22:21.195Z,190
2017-05-16T09:23:21.901Z,190
2017-05-16T09:24:22.611Z,190
2017-05-16T09:25:23.625Z,190
2017-05-16T09:26:24.326Z,190
2017-05-16T09:27:25.034Z,190
2017-05-16T09:28:25.741Z,190
2017-05-16T09:29:26.450Z,190
2017-05-16T09:30:27.362Z,190
2017-05-16T09:31:28.073Z,190
2017-05-16T09:32:28.781Z,195
2017-05-16T09:33:29.486Z,195
2017-05-16T09:34:30.191Z,195
2017-05-16T09:35:31.149Z,195
2017-05-16T09:36:31.860Z,195
2017-05-16T09:37:32.573Z,200
2017-05-16T09:38:33.290Z,200
2017-05-16T09:39:33.997Z,200
2017-05-16T09:40:34.960Z,200
2017-05-16T09:41:35.683Z,205
2017-05-16T09:42:36.396Z,205
2017-05-16T09:43:37.110Z,205
2017-05-16T09:44:37.815Z,205
2017-05-16T09:45:38.778Z,205
2017-05-16T09:46:39.522Z,205
2017-05-16T09:47:40.234Z,210
2017-05-16T09:48:40.948Z,210
2017-05-16T09:49:41.657Z,215
2017-05-16T09:50:42.614Z,210
2017-05-16T09:51:43.321Z,215
2017-05-16T09:52:44.029Z,215
2017-05-16T09:53:44.736Z,215
2017-05-16T09:54:45.443Z,210
2017-05-16T09:55:46.402Z,210
2017-05-16T09:56:47.110Z,210
2017-05-16T09:57:47.822Z,205
2017-05-16T09:58:48.530Z,200
2017-05-16T09:59:49.237Z,200
2017-05-16T10:00:50.195Z,200
2017-05-16T10:01:50.902Z,200
2017-05-16T10:02:51.608Z,205
2017-05-16T10:03:52.316Z,205
2017-05-16T10:04:53.032Z,210
2017-05-16T10:05:53.991Z,210
2017-05-16T10:06:54.697Z,205
2017-05-16T10:07:55.411Z,205
2017-05-16T10:08:56.120Z,210
2017-05-16T10:09:56.830Z,210
2017-05-16T10:10:57.790Z,210
2017-05-16T10:11:58.501Z,210
2017-05-16T10:12:59.213Z,210
2017-05-16T10:13:59.922Z,215
2017-05-16T10:15:00.631Z,215
2017-05-16T10:16:01.543Z,210
2017-05-16T10:17:02.255Z,210
2017-05-16T10:18:02.968Z,210
2017-05-16T10:19:03.678Z,210
2017-05-16T10:20:04.385Z,215
2017-05-16T10:21:05.342Z,215
2017-05-16T10:22:06.057Z,215
2017-05-16T10:23:06.767Z,215
2017-05-16T10:24:07.478Z,215
2017-05-16T10:25:08.189Z,215
2017-05-16T10:26:09.103Z,215
2017-05-16T10:27:09.814Z,220
2017-05-16T10:28:10.524Z,225
2017-05-16T10:29:11.250Z,225
2017-05-16T10:30:11.960Z,225
2017-05-16T10:31:12.928Z,230
2017-05-16T10:32:13.636Z,230
2017-05-16T10:33:14.348Z,235
2017-05-16T10:34:15.059Z,235
2017-05-16T10:36:14.375Z,240
2017-05-16T10:37:15.084Z,240
2017-05-16T10:38:15.794Z,240
2017-05-16T10:39:16.507Z,240
2017-05-16T10:40:17.216Z,245
2017-05-16T10:41:18.179Z,245
2017-05-16T10:42:18.892Z,250
2017-05-16T10:43:19.602Z,255
2017-05-16T10:44:20.312Z,255
2017-05-16T10:45:21.027Z,255
2017-05-16T10:46:21.988Z,260
2017-05-16T10:47:22.703Z,255
2017-05-16T10:48:23.419Z,255
2017-05-16T10:49:24.132Z,260
2017-05-16T10:50:24.840Z,260
2017-05-16T10:51:25.799Z,260
2017-05-16T10:52:26.509Z,265
2017-05-16T10:53:27.222Z,265
2017-05-16T10:54:27.934Z,260
2017-05-16T10:55:28.644Z,265
2017-05-16T10:56:29.606Z,270
2017-05-16T10:57:30.313Z,275
2017-05-16T10:58:31.020Z,280
2017-05-16T10:59:31.733Z,285
2017-05-16T11:00:32.446Z,280
2017-05-16T11:01:33.411Z,275
2017-05-16T11:02:34.129Z,275
2017-05-16T11:03:34.854Z,280
2017-05-16T11:04:35.566Z,240
2017-05-16T11:05:36.280Z,255
2017-05-16T11:06:37.247Z,270
2017-05-16T11:07:37.960Z,265
2017-05-16T11:08:38.692Z,310
2017-05-16T11:09:39.409Z,325
2017-05-16T11:10:40.122Z,345
2017-05-16T11:11:41.084Z,350
2017-05-16T11:12:41.795Z,340
2017-05-16T11:13:42.507Z,330
2017-05-16T11:14:43.218Z,310
2017-05-16T11:15:43.931Z,305
2017-05-16T11:16:44.854Z,300
2017-05-16T11:17:45.565Z,305
2017-05-16T11:18:46.285Z,310
2017-05-16T11:19:46.999Z,310
2017-05-16T11:20:47.711Z,315
2017-05-16T11:21:48.673Z,335
2017-05-16T11:22:49.388Z,345
2017-05-16T11:23:50.099Z,360
2017-05-16T11:24:50.815Z,360
2017-05-16T11:25:51.542Z,365
2017-05-16T11:26:54.003Z,375
2017-05-16T11:27:54.719Z,380
2017-05-16T11:28:55.434Z,395
2017-05-16T11:29:56.146Z,405
2017-05-16T11:30:56.857Z,405
2017-05-16T11:31:57.827Z,405
2017-05-16T11:32:58.543Z,640
2017-05-16T11:33:59.261Z,2265
2017-05-16T11:34:59.973Z,3135
2017-05-16T11:36:00.689Z,3040
2017-05-16T11:37:01.605Z,3055
2017-05-16T11:38:02.319Z,3250
2017-05-16T11:39:03.065Z,3205
2017-05-16T11:40:03.783Z,3155
2017-05-16T11:41:04.499Z,3335
2017-05-16T11:42:05.464Z,3485
2017-05-16T11:43:06.182Z,3390
2017-05-16T11:44:06.896Z,3370
2017-05-16T11:45:07.605Z,3385
2017-05-16T11:46:08.319Z,3500
2017-05-16T11:47:09.284Z,3480
2017-05-16T11:48:10.003Z,3380
2017-05-16T11:49:10.718Z,3355
2017-05-16T11:50:11.432Z,3180
2017-05-16T11:51:12.146Z,3330
2017-05-16T11:52:13.108Z,3390
2017-05-16T11:53:13.821Z,3360
2017-05-16T11:54:14.536Z,3315
2017-05-16T11:55:15.263Z,3505
2017-05-16T11:56:15.985Z,3465
2017-05-16T11:57:16.903Z,3435
2017-05-16T11:58:17.618Z,3390
2017-05-16T11:59:18.339Z,3545
2017-05-16T12:00:19.057Z,3525
2017-05-16T12:01:19.775Z,3515
2017-05-16T12:02:20.748Z,3650
2017-05-16T12:03:21.467Z,3610
2017-05-16T12:04:22.190Z,3565
2017-05-16T12:05:22.911Z,3425
2017-05-16T12:06:23.632Z,3485
2017-05-16T12:07:24.653Z,3330
2017-05-16T12:08:25.378Z,3415
2017-05-16T12:09:26.101Z,3485
2017-05-16T12:10:26.821Z,3535
2017-05-16T12:11:27.540Z,3510
2017-05-16T12:12:28.559Z,3525
2017-05-16T12:13:29.277Z,3485
2017-05-16T12:14:29.993Z,3495
2017-05-16T12:15:30.715Z,3625
2017-05-16T12:16:31.434Z,3350
2017-05-16T12:17:32.457Z,3085
2017-05-16T12:18:33.176Z,3440
2017-05-16T12:19:33.898Z,3565
2017-05-16T12:20:34.622Z,3505
2017-05-16T12:21:35.359Z,3450
2017-05-16T12:22:36.338Z,3525
2017-05-16T12:23:37.067Z,3475
2017-05-16T12:24:37.787Z,3500
2017-05-16T12:25:38.517Z,3500
2017-05-16T12:26:39.237Z,3415
2017-05-16T12:27:40.207Z,3430
2017-05-16T12:28:40.928Z,3575
2017-05-16T12:29:41.650Z,3575
2017-05-16T12:30:42.379Z,3570
2017-05-16T12:31:43.109Z,3485
2017-05-16T12:32:44.131Z,3460
2017-05-16T12:33:44.853Z,3440
2017-05-16T12:34:45.587Z,3630
2017-05-16T12:35:46.308Z,3555
2017-05-16T12:36:47.033Z,3460
2017-05-16T12:37:48.015Z,3605
2017-05-16T12:38:48.739Z,3645
2017-05-16T12:39:49.461Z,3470
2017-05-16T12:40:50.187Z,3455
2017-05-16T12:41:50.908Z,3545
2017-05-16T12:42:51.884Z,3580
2017-05-16T12:43:52.615Z,3465
2017-05-16T12:44:53.342Z,3485
2017-05-16T12:45:54.078Z,3465
2017-05-16T12:46:54.810Z,3505
2017-05-16T12:47:55.740Z,3450
2017-05-16T12:48:56.473Z,3545
2017-05-16T12:49:57.196Z,3510
2017-05-16T12:50:57.920Z,3460
2017-05-16T12:51:58.645Z,3475
2017-05-16T12:52:59.569Z,3420
2017-05-16T12:54:00.294Z,3140
2017-05-16T12:55:01.024Z,2725
2017-05-16T12:56:01.766Z,2500
2017-05-16T12:57:02.498Z,1850
2017-05-16T12:58:03.473Z,1495
2017-05-16T12:59:04.200Z,1965
2017-05-16T13:00:04.923Z,1740
2017-05-16T13:01:05.644Z,2875
2017-05-16T13:02:06.366Z,2700
2017-05-16T13:03:07.345Z,2660
2017-05-16T13:04:08.070Z,3265
2017-05-16T13:05:08.793Z,3315
2017-05-16T13:06:09.523Z,3240
2017-05-16T13:07:10.245Z,3210
2017-05-16T13:08:11.220Z,3290
2017-05-16T13:09:11.951Z,3380
2017-05-16T13:10:12.672Z,3330
2017-05-16T13:11:13.401Z,3310
2017-05-16T13:12:14.124Z,3335
2017-05-16T13:13:15.096Z,3315
2017-05-16T13:14:15.817Z,3185
2017-05-16T13:15:16.540Z,3270
2017-05-16T13:16:17.264Z,3140
2017-05-16T13:17:17.987Z,3195
2017-05-16T13:18:18.970Z,3240
2017-05-16T13:19:19.694Z,3235
2017-05-16T13:20:20.419Z,3210
2017-05-16T13:21:21.142Z,3275
2017-05-16T13:22:21.865Z,3260
2017-05-16T13:23:22.837Z,3195
2017-05-16T13:24:23.561Z,3265
2017-05-16T13:25:24.292Z,3235
2017-05-16T13:26:25.019Z,3310
2017-05-16T13:27:25.747Z,3335
2017-05-16T13:28:26.730Z,3260
2017-05-16T13:29:27.464Z,3285
2017-05-16T13:30:28.191Z,3295
2017-05-16T13:31:28.922Z,3350
2017-05-16T13:32:29.647Z,3280
2017-05-16T13:33:30.632Z,3255
2017-05-16T13:34:31.355Z,3320
2017-05-16T13:35:32.079Z,3345
2017-05-16T13:36:32.803Z,3385
2017-05-16T13:37:33.530Z,3455
2017-05-16T13:38:34.456Z,3325
2017-05-16T13:39:35.193Z,3320
2017-05-16T13:40:35.915Z,3265
2017-05-16T13:41:36.638Z,3230
2017-05-16T13:42:37.358Z,3240
2017-05-16T13:43:38.281Z,3290
2017-05-16T13:44:39.009Z,3230
2017-05-16T13:45:39.741Z,3250
2017-05-16T13:46:40.478Z,3175
2017-05-16T13:47:41.205Z,2160
2017-05-16T13:48:42.134Z,960
2017-05-16T13:49:42.864Z,625
2017-05-16T13:50:43.589Z,600
2017-05-16T13:51:44.315Z,580
2017-05-16T13:52:45.041Z,565
2017-05-16T13:53:46.022Z,555
2017-05-16T13:54:46.746Z,555
2017-05-16T13:55:47.471Z,550
2017-05-16T13:56:48.199Z,555
2017-05-16T13:57:48.921Z,555
2017-05-16T13:58:49.905Z,555
2017-05-16T13:59:50.629Z,555
2017-05-16T14:00:51.357Z,560
2017-05-16T14:01:52.084Z,565
2017-05-16T14:02:52.808Z,575
2017-05-16T14:03:53.784Z,585
2017-05-16T14:04:54.515Z,595
2017-05-16T14:05:55.238Z,605
2017-05-16T14:06:55.957Z,615
2017-05-16T14:07:56.680Z,615
2017-05-16T14:08:57.700Z,620
2017-05-16T14:09:58.424Z,625
2017-05-16T14:10:59.151Z,625
2017-05-16T14:11:59.888Z,615